sensor_id;sensor_type;location;lat;lon;timestamp;temperature;humidity
5196;DHT22;2617;51.006;12.436;2022-09-09T00:02:18;13.60;99.90
5196;DHT22;2617;51.006;12.436;2022-09-09T00:07:42;13.60;99.90
5196;DHT22;2617;51.006;12.436;2022-09-09T00:13:01;13.60;99.90
5196;DHT22;2617;51.006;12.436;2022-09-09T00:23:25;13.60;99.90
5196;DHT22;2617;51.006;12.436;2022-09-09T00:28:30;13.60;99.90
5196;DHT22;2617;51.006;12.436;2022-09-09T00:33:32;13.70;99.90
5196;DHT22;2617;51.006;12.436;2022-09-09T00:38:38;13.60;99.90
5196;DHT22;2617;51.006;12.436;2022-09-09T00:43:40;13.70;99.90
5196;DHT22;2617;51.006;12.436;2022-09-09T00:54:32;13.50;99.90
5196;DHT22;2617;51.006;12.436;2022-09-09T00:59:48;13.40;99.90
5196;DHT22;2617;51.006;12.436;2022-09-09T01:04:50;13.30;99.90
5196;DHT22;2617;51.006;12.436;2022-09-09T01:09:56;13.20;99.90
5196;DHT22;2617;51.006;12.436;2022-09-09T01:15:04;13.20;99.90
5196;DHT22;2617;51.006;12.436;2022-09-09T01:20:08;13.10;99.90
5196;DHT22;2617;51.006;12.436;2022-09-09T01:25:19;13.10;99.90
5196;DHT22;2617;51.006;12.436;2022-09-09T01:30:24;13.10;99.90
5196;DHT22;2617;51.006;12.436;2022-09-09T01:35:45;13.10;99.90
5196;DHT22;2617;51.006;12.436;2022-09-09T01:40:51;13.10;99.90
5196;DHT22;2617;51.006;12.436;2022-09-09T01:45:54;13.10;99.90
5196;DHT22;2617;51.006;12.436;2022-09-09T01:50:56;13.10;99.90
5196;DHT22;2617;51.006;12.436;2022-09-09T01:56:04;13.10;99.90
5196;DHT22;2617;51.006;12.436;2022-09-09T02:01:14;13.10;99.90
5196;DHT22;2617;51.006;12.436;2022-09-09T02:06:22;13.10;99.90
5196;DHT22;2617;51.006;12.436;2022-09-09T02:11:25;13.10;99.90
5196;DHT22;2617;51.006;12.436;2022-09-09T02:21:50;13.10;99.90
5196;DHT22;2617;51.006;12.436;2022-09-09T02:26:53;13.00;99.90
5196;DHT22;2617;51.006;12.436;2022-09-09T02:31:56;13.00;99.90
5196;DHT22;2617;51.006;12.436;2022-09-09T02:36:58;13.00;99.90
5196;DHT22;2617;51.006;12.436;2022-09-09T02:42:00;13.00;99.90
5196;DHT22;2617;51.006;12.436;2022-09-09T02:47:13;13.00;99.90
5196;DHT22;2617;51.006;12.436;2022-09-09T02:52:30;13.00;99.90
5196;DHT22;2617;51.006;12.436;2022-09-09T02:57:32;13.00;99.90
5196;DHT22;2617;51.006;12.436;2022-09-09T03:02:35;13.00;99.90
5196;DHT22;2617;51.006;12.436;2022-09-09T03:07:37;13.00;99.90
5196;DHT22;2617;51.006;12.436;2022-09-09T03:12:40;13.00;99.90
5196;DHT22;2617;51.006;12.436;2022-09-09T03:17:42;13.00;99.90
5196;DHT22;2617;51.006;12.436;2022-09-09T03:22:45;13.00;99.90
5196;DHT22;2617;51.006;12.436;2022-09-09T03:27:48;13.00;99.90
5196;DHT22;2617;51.006;12.436;2022-09-09T03:32:50;12.90;99.90
5196;DHT22;2617;51.006;12.436;2022-09-09T03:37:53;12.90;99.90
5196;DHT22;2617;51.006;12.436;2022-09-09T03:42:55;12.90;99.90
5196;DHT22;2617;51.006;12.436;2022-09-09T03:47:58;12.90;99.90
5196;DHT22;2617;51.006;12.436;2022-09-09T03:53:00;12.90;99.90
5196;DHT22;2617;51.006;12.436;2022-09-09T03:58:02;12.90;99.90
5196;DHT22;2617;51.006;12.436;2022-09-09T04:03:06;12.90;99.90
5196;DHT22;2617;51.006;12.436;2022-09-09T04:08:08;13.00;99.90
5196;DHT22;2617;51.006;12.436;2022-09-09T04:13:11;12.90;99.90
5196;DHT22;2617;51.006;12.436;2022-09-09T04:18:14;12.90;99.90
5196;DHT22;2617;51.006;12.436;2022-09-09T04:23:16;12.90;99.90
5196;DHT22;2617;51.006;12.436;2022-09-09T04:28:19;12.90;99.90
5196;DHT22;2617;51.006;12.436;2022-09-09T04:33:23;12.90;99.90
5196;DHT22;2617;51.006;12.436;2022-09-09T04:38:24;12.90;99.90
5196;DHT22;2617;51.006;12.436;2022-09-09T04:43:28;12.90;99.90
5196;DHT22;2617;51.006;12.436;2022-09-09T04:48:30;12.90;99.90
5196;DHT22;2617;51.006;12.436;2022-09-09T04:53:32;12.90;99.90
5196;DHT22;2617;51.006;12.436;2022-09-09T04:58:36;13.00;99.90
5196;DHT22;2617;51.006;12.436;2022-09-09T05:03:39;13.30;99.90
5196;DHT22;2617;51.006;12.436;2022-09-09T05:08:42;13.30;99.90
5196;DHT22;2617;51.006;12.436;2022-09-09T05:13:44;13.40;99.90
5196;DHT22;2617;51.006;12.436;2022-09-09T05:18:47;13.60;99.90
5196;DHT22;2617;51.006;12.436;2022-09-09T05:23:49;13.60;99.90
5196;DHT22;2617;51.006;12.436;2022-09-09T05:28:52;13.70;99.90
5196;DHT22;2617;51.006;12.436;2022-09-09T05:33:55;13.90;99.90
5196;DHT22;2617;51.006;12.436;2022-09-09T05:38:57;13.90;99.90
5196;DHT22;2617;51.006;12.436;2022-09-09T05:44:00;14.00;99.90
5196;DHT22;2617;51.006;12.436;2022-09-09T05:49:02;14.10;99.90
5196;DHT22;2617;51.006;12.436;2022-09-09T05:54:05;14.30;99.90
5196;DHT22;2617;51.006;12.436;2022-09-09T05:59:08;14.60;99.90
5196;DHT22;2617;51.006;12.436;2022-09-09T06:04:10;14.50;99.90
5196;DHT22;2617;51.006;12.436;2022-09-09T06:09:13;14.70;99.90
5196;DHT22;2617;51.006;12.436;2022-09-09T06:14:15;14.80;99.90
5196;DHT22;2617;51.006;12.436;2022-09-09T06:19:18;15.00;99.90
5196;DHT22;2617;51.006;12.436;2022-09-09T06:24:20;15.20;99.90
5196;DHT22;2617;51.006;12.436;2022-09-09T06:29:22;15.30;99.90
5196;DHT22;2617;51.006;12.436;2022-09-09T06:34:25;15.40;99.90
5196;DHT22;2617;51.006;12.436;2022-09-09T06:39:28;15.50;99.90
5196;DHT22;2617;51.006;12.436;2022-09-09T06:44:30;15.50;99.90
5196;DHT22;2617;51.006;12.436;2022-09-09T06:49:33;15.50;99.90
5196;DHT22;2617;51.006;12.436;2022-09-09T06:54:36;15.60;99.90
5196;DHT22;2617;51.006;12.436;2022-09-09T06:59:39;15.70;99.90
5196;DHT22;2617;51.006;12.436;2022-09-09T07:04:41;15.70;99.90
5196;DHT22;2617;51.006;12.436;2022-09-09T07:09:44;15.80;99.90
5196;DHT22;2617;51.006;12.436;2022-09-09T07:14:47;16.00;99.90
5196;DHT22;2617;51.006;12.436;2022-09-09T07:19:49;16.00;99.90
5196;DHT22;2617;51.006;12.436;2022-09-09T07:24:52;16.10;99.90
5196;DHT22;2617;51.006;12.436;2022-09-09T07:29:55;16.40;99.90
5196;DHT22;2617;51.006;12.436;2022-09-09T07:34:58;16.50;99.90
5196;DHT22;2617;51.006;12.436;2022-09-09T07:40:01;16.50;99.90
5196;DHT22;2617;51.006;12.436;2022-09-09T07:45:04;16.50;99.90
5196;DHT22;2617;51.006;12.436;2022-09-09T07:50:09;16.70;99.90
5196;DHT22;2617;51.006;12.436;2022-09-09T07:55:10;16.90;99.90
5196;DHT22;2617;51.006;12.436;2022-09-09T08:00:13;17.20;99.90
5196;DHT22;2617;51.006;12.436;2022-09-09T08:05:16;17.40;99.90
5196;DHT22;2617;51.006;12.436;2022-09-09T08:10:19;17.80;99.90
5196;DHT22;2617;51.006;12.436;2022-09-09T08:15:21;18.20;99.90
5196;DHT22;2617;51.006;12.436;2022-09-09T08:20:24;18.40;99.90
5196;DHT22;2617;51.006;12.436;2022-09-09T08:25:26;18.40;99.90
5196;DHT22;2617;51.006;12.436;2022-09-09T08:30:29;18.90;99.90
5196;DHT22;2617;51.006;12.436;2022-09-09T08:35:32;18.90;99.90
5196;DHT22;2617;51.006;12.436;2022-09-09T08:40:35;20.10;99.90
5196;DHT22;2617;51.006;12.436;2022-09-09T08:45:43;20.10;99.90
5196;DHT22;2617;51.006;12.436;2022-09-09T08:50:43;20.00;99.90
5196;DHT22;2617;51.006;12.436;2022-09-09T08:55:47;19.80;99.90
5196;DHT22;2617;51.006;12.436;2022-09-09T09:06:06;19.80;99.90
5196;DHT22;2617;51.006;12.436;2022-09-09T09:11:16;20.10;99.90
5196;DHT22;2617;51.006;12.436;2022-09-09T09:16:27;20.30;99.90
5196;DHT22;2617;51.006;12.436;2022-09-09T09:21:42;20.70;99.90
5196;DHT22;2617;51.006;12.436;2022-09-09T09:26:43;20.60;99.90
5196;DHT22;2617;51.006;12.436;2022-09-09T09:31:48;20.80;99.90
5196;DHT22;2617;51.006;12.436;2022-09-09T09:36:59;20.90;99.90
5196;DHT22;2617;51.006;12.436;2022-09-09T09:42:10;20.90;99.90
5196;DHT22;2617;51.006;12.436;2022-09-09T09:47:14;20.90;99.90
5196;DHT22;2617;51.006;12.436;2022-09-09T09:52:17;21.40;99.90
5196;DHT22;2617;51.006;12.436;2022-09-09T09:57:22;21.30;99.90
5196;DHT22;2617;51.006;12.436;2022-09-09T10:02:22;21.70;99.90
5196;DHT22;2617;51.006;12.436;2022-09-09T10:07:25;22.00;99.90
5196;DHT22;2617;51.006;12.436;2022-09-09T10:12:50;22.30;99.90
5196;DHT22;2617;51.006;12.436;2022-09-09T10:18:21;22.50;99.90
5196;DHT22;2617;51.006;12.436;2022-09-09T10:23:29;22.50;99.90
5196;DHT22;2617;51.006;12.436;2022-09-09T10:28:32;22.40;99.90
5196;DHT22;2617;51.006;12.436;2022-09-09T10:33:44;22.50;99.90
5196;DHT22;2617;51.006;12.436;2022-09-09T10:38:46;22.70;98.70
5196;DHT22;2617;51.006;12.436;2022-09-09T10:44:06;22.60;99.10
5196;DHT22;2617;51.006;12.436;2022-09-09T10:49:29;22.50;99.90
5196;DHT22;2617;51.006;12.436;2022-09-09T10:54:58;22.40;98.50
5196;DHT22;2617;51.006;12.436;2022-09-09T11:00:04;22.30;98.50
5196;DHT22;2617;51.006;12.436;2022-09-09T11:05:15;22.40;97.20
5196;DHT22;2617;51.006;12.436;2022-09-09T11:10:27;22.70;96.30
5196;DHT22;2617;51.006;12.436;2022-09-09T11:15:35;23.30;95.60
5196;DHT22;2617;51.006;12.436;2022-09-09T11:20:36;23.80;94.90
5196;DHT22;2617;51.006;12.436;2022-09-09T11:25:42;24.10;93.90
5196;DHT22;2617;51.006;12.436;2022-09-09T11:30:54;24.10;93.90
5196;DHT22;2617;51.006;12.436;2022-09-09T11:36:06;24.30;93.50
5196;DHT22;2617;51.006;12.436;2022-09-09T11:41:05;24.40;92.90
5196;DHT22;2617;51.006;12.436;2022-09-09T11:46:08;23.60;93.20
5196;DHT22;2617;51.006;12.436;2022-09-09T11:51:13;23.70;92.90
5196;DHT22;2617;51.006;12.436;2022-09-09T11:56:23;23.70;92.90
5196;DHT22;2617;51.006;12.436;2022-09-09T12:01:29;24.00;93.10
5196;DHT22;2617;51.006;12.436;2022-09-09T12:06:32;24.20;92.10
5196;DHT22;2617;51.006;12.436;2022-09-09T12:11:34;24.30;91.90
5196;DHT22;2617;51.006;12.436;2022-09-09T12:16:38;24.50;91.20
5196;DHT22;2617;51.006;12.436;2022-09-09T12:21:54;24.60;90.10
5196;DHT22;2617;51.006;12.436;2022-09-09T12:27:16;24.60;90.10
5196;DHT22;2617;51.006;12.436;2022-09-09T12:32:25;24.70;90.30
5196;DHT22;2617;51.006;12.436;2022-09-09T12:37:46;24.70;89.80
5196;DHT22;2617;51.006;12.436;2022-09-09T12:42:47;24.70;89.70
5196;DHT22;2617;51.006;12.436;2022-09-09T12:47:51;24.70;90.20
5196;DHT22;2617;51.006;12.436;2022-09-09T12:52:53;24.80;90.90
5196;DHT22;2617;51.006;12.436;2022-09-09T12:57:57;24.90;89.10
5196;DHT22;2617;51.006;12.436;2022-09-09T13:03:00;24.80;89.80
5196;DHT22;2617;51.006;12.436;2022-09-09T13:08:04;24.90;90.00
5196;DHT22;2617;51.006;12.436;2022-09-09T13:13:13;24.80;87.80
5196;DHT22;2617;51.006;12.436;2022-09-09T13:18:17;25.10;89.40
5196;DHT22;2617;51.006;12.436;2022-09-09T13:23:20;25.10;89.40
5196;DHT22;2617;51.006;12.436;2022-09-09T13:28:23;25.00;86.90
5196;DHT22;2617;51.006;12.436;2022-09-09T13:33:29;24.60;86.30
5196;DHT22;2617;51.006;12.436;2022-09-09T13:38:52;24.40;86.60
5196;DHT22;2617;51.006;12.436;2022-09-09T13:43:55;24.20;88.00
5196;DHT22;2617;51.006;12.436;2022-09-09T13:49:01;24.80;86.00
5196;DHT22;2617;51.006;12.436;2022-09-09T13:54:06;25.10;87.30
5196;DHT22;2617;51.006;12.436;2022-09-09T13:59:13;25.20;86.00
5196;DHT22;2617;51.006;12.436;2022-09-09T14:04:16;25.10;86.20
5196;DHT22;2617;51.006;12.436;2022-09-09T14:09:18;25.10;86.10
5196;DHT22;2617;51.006;12.436;2022-09-09T14:14:20;25.10;86.10
5196;DHT22;2617;51.006;12.436;2022-09-09T14:19:23;24.70;84.70
5196;DHT22;2617;51.006;12.436;2022-09-09T14:24:26;23.80;85.20
5196;DHT22;2617;51.006;12.436;2022-09-09T14:29:28;23.80;85.10
5196;DHT22;2617;51.006;12.436;2022-09-09T14:34:31;23.30;84.10
5196;DHT22;2617;51.006;12.436;2022-09-09T14:39:33;23.00;86.00
5196;DHT22;2617;51.006;12.436;2022-09-09T14:44:36;22.80;87.00
5196;DHT22;2617;51.006;12.436;2022-09-09T14:49:41;22.80;88.70
5196;DHT22;2617;51.006;12.436;2022-09-09T14:54:44;23.00;89.50
5196;DHT22;2617;51.006;12.436;2022-09-09T14:59:46;23.00;89.50
5196;DHT22;2617;51.006;12.436;2022-09-09T15:04:49;24.20;87.80
5196;DHT22;2617;51.006;12.436;2022-09-09T15:09:52;24.10;87.70
5196;DHT22;2617;51.006;12.436;2022-09-09T15:14:55;24.00;88.10
5196;DHT22;2617;51.006;12.436;2022-09-09T15:19:58;24.00;88.10
5196;DHT22;2617;51.006;12.436;2022-09-09T15:25:00;23.80;85.40
5196;DHT22;2617;51.006;12.436;2022-09-09T15:30:03;23.80;85.80
5196;DHT22;2617;51.006;12.436;2022-09-09T15:35:06;23.60;87.70
5196;DHT22;2617;51.006;12.436;2022-09-09T15:40:09;23.40;87.80
5196;DHT22;2617;51.006;12.436;2022-09-09T15:45:12;23.00;89.20
5196;DHT22;2617;51.006;12.436;2022-09-09T15:50:14;22.80;90.10
5196;DHT22;2617;51.006;12.436;2022-09-09T15:55:17;22.60;90.90
5196;DHT22;2617;51.006;12.436;2022-09-09T16:00:19;22.30;91.60
5196;DHT22;2617;51.006;12.436;2022-09-09T16:05:22;22.20;92.70
5196;DHT22;2617;51.006;12.436;2022-09-09T16:10:24;22.00;94.00
5196;DHT22;2617;51.006;12.436;2022-09-09T16:15:27;21.70;94.40
5196;DHT22;2617;51.006;12.436;2022-09-09T16:20:29;21.50;95.30
5196;DHT22;2617;51.006;12.436;2022-09-09T16:25:31;21.30;95.50
5196;DHT22;2617;51.006;12.436;2022-09-09T16:30:34;21.20;95.80
5196;DHT22;2617;51.006;12.436;2022-09-09T16:35:37;20.90;95.60
5196;DHT22;2617;51.006;12.436;2022-09-09T16:40:41;20.90;95.60
5196;DHT22;2617;51.006;12.436;2022-09-09T16:45:44;20.70;95.90
5196;DHT22;2617;51.006;12.436;2022-09-09T16:50:46;20.40;97.00
5196;DHT22;2617;51.006;12.436;2022-09-09T16:55:48;20.10;97.60
5196;DHT22;2617;51.006;12.436;2022-09-09T17:00:57;19.60;99.90
5196;DHT22;2617;51.006;12.436;2022-09-09T17:05:55;19.40;99.90
5196;DHT22;2617;51.006;12.436;2022-09-09T17:10:57;19.40;99.90
5196;DHT22;2617;51.006;12.436;2022-09-09T17:16:03;19.10;99.90
5196;DHT22;2617;51.006;12.436;2022-09-09T17:21:13;18.90;99.90
5196;DHT22;2617;51.006;12.436;2022-09-09T17:26:16;18.50;99.90
5196;DHT22;2617;51.006;12.436;2022-09-09T17:31:17;18.40;99.90
5196;DHT22;2617;51.006;12.436;2022-09-09T17:36:21;18.30;99.90
5196;DHT22;2617;51.006;12.436;2022-09-09T17:41:25;18.10;99.90
5196;DHT22;2617;51.006;12.436;2022-09-09T17:46:28;18.00;99.90
5196;DHT22;2617;51.006;12.436;2022-09-09T17:51:30;17.90;99.90
5196;DHT22;2617;51.006;12.436;2022-09-09T17:56:33;17.60;99.90
5196;DHT22;2617;51.006;12.436;2022-09-09T18:01:37;17.50;99.90
5196;DHT22;2617;51.006;12.436;2022-09-09T18:06:40;17.50;99.90
5196;DHT22;2617;51.006;12.436;2022-09-09T18:11:43;17.40;99.90
5196;DHT22;2617;51.006;12.436;2022-09-09T18:16:45;17.20;99.90
5196;DHT22;2617;51.006;12.436;2022-09-09T18:21:48;17.00;99.90
5196;DHT22;2617;51.006;12.436;2022-09-09T18:26:51;16.90;99.90
5196;DHT22;2617;51.006;12.436;2022-09-09T18:31:54;16.80;99.90
5196;DHT22;2617;51.006;12.436;2022-09-09T18:36:55;16.70;99.90
5196;DHT22;2617;51.006;12.436;2022-09-09T18:41:59;16.60;99.90
5196;DHT22;2617;51.006;12.436;2022-09-09T18:47:01;16.60;99.90
5196;DHT22;2617;51.006;12.436;2022-09-09T18:52:03;16.50;99.90
5196;DHT22;2617;51.006;12.436;2022-09-09T18:57:05;16.40;99.90
5196;DHT22;2617;51.006;12.436;2022-09-09T19:02:08;16.30;99.90
5196;DHT22;2617;51.006;12.436;2022-09-09T19:07:11;16.10;99.90
5196;DHT22;2617;51.006;12.436;2022-09-09T19:12:14;16.10;99.90
5196;DHT22;2617;51.006;12.436;2022-09-09T19:17:16;16.10;99.90
5196;DHT22;2617;51.006;12.436;2022-09-09T19:22:18;16.10;99.90
5196;DHT22;2617;51.006;12.436;2022-09-09T19:27:21;16.00;99.90
5196;DHT22;2617;51.006;12.436;2022-09-09T19:32:24;16.00;99.90
5196;DHT22;2617;51.006;12.436;2022-09-09T19:37:27;16.00;99.90
5196;DHT22;2617;51.006;12.436;2022-09-09T19:42:29;15.90;99.90
5196;DHT22;2617;51.006;12.436;2022-09-09T19:47:31;16.00;99.90
5196;DHT22;2617;51.006;12.436;2022-09-09T19:52:34;15.90;99.90
5196;DHT22;2617;51.006;12.436;2022-09-09T19:57:36;15.90;99.90
5196;DHT22;2617;51.006;12.436;2022-09-09T20:02:39;15.80;99.90
5196;DHT22;2617;51.006;12.436;2022-09-09T20:07:41;15.80;99.90
5196;DHT22;2617;51.006;12.436;2022-09-09T20:12:45;15.90;99.90
5196;DHT22;2617;51.006;12.436;2022-09-09T20:17:47;15.80;99.90
5196;DHT22;2617;51.006;12.436;2022-09-09T20:22:49;15.90;99.90
5196;DHT22;2617;51.006;12.436;2022-09-09T20:27:52;15.90;99.90
5196;DHT22;2617;51.006;12.436;2022-09-09T20:32:55;16.00;99.90
5196;DHT22;2617;51.006;12.436;2022-09-09T20:37:57;15.90;99.90
5196;DHT22;2617;51.006;12.436;2022-09-09T20:43:00;16.00;99.90
5196;DHT22;2617;51.006;12.436;2022-09-09T20:48:04;16.00;99.90
5196;DHT22;2617;51.006;12.436;2022-09-09T20:53:06;16.00;99.90
5196;DHT22;2617;51.006;12.436;2022-09-09T20:58:09;15.90;99.90
5196;DHT22;2617;51.006;12.436;2022-09-09T21:03:11;15.90;99.90
5196;DHT22;2617;51.006;12.436;2022-09-09T21:08:14;15.70;99.90
5196;DHT22;2617;51.006;12.436;2022-09-09T21:13:17;15.60;99.90
5196;DHT22;2617;51.006;12.436;2022-09-09T21:18:21;15.50;99.90
5196;DHT22;2617;51.006;12.436;2022-09-09T21:23:23;15.50;99.90
5196;DHT22;2617;51.006;12.436;2022-09-09T21:28:26;15.40;99.90
5196;DHT22;2617;51.006;12.436;2022-09-09T21:33:28;15.40;99.90
5196;DHT22;2617;51.006;12.436;2022-09-09T21:38:31;15.20;99.90
5196;DHT22;2617;51.006;12.436;2022-09-09T21:43:34;15.10;99.90
5196;DHT22;2617;51.006;12.436;2022-09-09T21:48:36;15.10;99.90
5196;DHT22;2617;51.006;12.436;2022-09-09T21:53:39;15.00;99.90
5196;DHT22;2617;51.006;12.436;2022-09-09T21:58:41;14.90;99.90
5196;DHT22;2617;51.006;12.436;2022-09-09T22:03:44;14.90;99.90
5196;DHT22;2617;51.006;12.436;2022-09-09T22:08:46;14.80;99.90
5196;DHT22;2617;51.006;12.436;2022-09-09T22:13:49;14.70;99.90
5196;DHT22;2617;51.006;12.436;2022-09-09T22:18:52;14.60;99.90
5196;DHT22;2617;51.006;12.436;2022-09-09T22:23:56;14.50;99.90
5196;DHT22;2617;51.006;12.436;2022-09-09T22:28:57;14.40;99.90
5196;DHT22;2617;51.006;12.436;2022-09-09T22:34:01;14.30;99.90
5196;DHT22;2617;51.006;12.436;2022-09-09T22:39:04;14.30;99.90
5196;DHT22;2617;51.006;12.436;2022-09-09T22:44:07;14.20;99.90
5196;DHT22;2617;51.006;12.436;2022-09-09T22:49:09;14.20;99.90
5196;DHT22;2617;51.006;12.436;2022-09-09T22:54:12;14.10;99.90
5196;DHT22;2617;51.006;12.436;2022-09-09T22:59:15;14.10;99.90
5196;DHT22;2617;51.006;12.436;2022-09-09T23:04:18;14.10;99.90
5196;DHT22;2617;51.006;12.436;2022-09-09T23:09:20;14.10;99.90
5196;DHT22;2617;51.006;12.436;2022-09-09T23:14:23;14.00;99.90
5196;DHT22;2617;51.006;12.436;2022-09-09T23:19:25;13.90;99.90
5196;DHT22;2617;51.006;12.436;2022-09-09T23:24:28;13.90;99.90
5196;DHT22;2617;51.006;12.436;2022-09-09T23:29:30;13.90;99.90
5196;DHT22;2617;51.006;12.436;2022-09-09T23:34:33;13.80;99.90
5196;DHT22;2617;51.006;12.436;2022-09-09T23:39:37;13.70;99.90
5196;DHT22;2617;51.006;12.436;2022-09-09T23:44:40;13.70;99.90
5196;DHT22;2617;51.006;12.436;2022-09-09T23:49:42;13.70;99.90
5196;DHT22;2617;51.006;12.436;2022-09-09T23:54:45;13.70;99.90
5196;DHT22;2617;51.006;12.436;2022-09-09T23:59:47;13.70;99.90
